Tuesday, January 22, 2019, 4:07 PM EST
Back to Local

KILG, Wilmington New Castle Co

Location: New Castle, DE, United States Lat: 39.667
Local Time: 4:07 PM EST (21:07 GMT) Lon: -75.6
Time Zone: US/Eastern Elev: 78 ft

Show me the last for .
Show Decoded

2019-01-22 15:51 METAR KILG 222051Z 15006KT 10SM CLR 00/M13 A3064 RMK AO2 SLP375 T00001133 56017
                 $ =
2019-01-22 14:51 METAR KILG 221951Z VRB03KT 10SM CLR 00/M17 A3064 RMK AO2 SLP376 T00001167 $ =
2019-01-22 13:51 METAR KILG 221851Z 00000KT 10SM CLR M01/M17 A3065 RMK AO2 SLPNO T10111167 =
2019-01-22 12:51 METAR KILG 221751Z 31005KT 10SM CLR M02/M16 A3069 RMK AO2 SLP392 T10171161 11017
                 21117 58011 =
2019-01-22 11:51 METAR KILG 221651Z 10SM CLR M03/M17 A3070 RMK AO2 SLP397 T10331167 =
2019-01-22 10:51 METAR KILG 221551Z VRB03KT 10SM CLR M05/M16 A3073 RMK AO2 SLP405 T10501161 =
2019-01-22 09:51 METAR KILG 221451Z VRB06KT 10SM CLR M07/M17 A3072 RMK AO2 SLP403 T10671167 51019
                 =
2019-01-22 08:51 METAR KILG 221351Z 34009KT 10SM CLR M08/M16 A3072 RMK AO2 SLP403 T10831161 =
2019-01-22 07:51 METAR KILG 221251Z 29006KT 10SM CLR M10/M16 A3071 RMK AO2 SLP401 T11001161 =
2019-01-22 06:51 METAR KILG 221151Z 33007KT 10SM CLR M11/M17 A3066 RMK AO2 SLP383 T11061167 11094
                 21117 53012 $ =
2019-01-22 05:51 METAR KILG 221051Z AUTO 33006KT 10SM CLR M11/M17 A3065 RMK AO2 SLP381 T11061172
                 $ =
2019-01-22 04:51 METAR KILG 220951Z AUTO 33010G20KT 10SM CLR M10/M17 A3063 RMK AO2 SLP373
                 T11001172 $ =
2019-01-22 03:51 METAR KILG 220851Z AUTO 30011KT 10SM CLR M11/M18 A3063 RMK AO2 SLP371 T11061178
                 $ =
2019-01-22 02:51 METAR KILG 220751Z AUTO 29009KT 10SM CLR M11/M18 A3060 RMK AO2 SLP363 T11061178
                 $ =
2019-01-22 00:51 METAR KILG 220551Z AUTO 31011G21KT 10SM CLR M10/M19 A3054 RMK AO2 SLP343
                 T11001194 11083 21100 51011 =
2019-01-21 23:51 METAR KILG 220451Z AUTO 32012G26KT 10SM CLR M09/M20 A3053 RMK AO2 PK WND
                 32027/0438 SLP340 T10941200 410721128 =
2019-01-21 22:51 METAR KILG 220351Z AUTO 31017KT 10SM CLR M09/M21 A3053 RMK AO2 SLP338 T10891206
                 =
2019-01-21 21:51 METAR KILG 220251Z AUTO 30011G22KT 10SM CLR M09/M20 A3051 RMK AO2 PK WND
                 31026/0211 SLP331 T10891200 51036 =
2019-01-21 20:51 METAR KILG 220151Z AUTO 32015G34KT 10SM CLR M09/M20 A3047 RMK AO2 PK WND
                 29034/0142 SLP320 T10891200 =
2019-01-21 19:51 METAR KILG 220051Z AUTO 31015G26KT 10SM CLR M09/M21 A3045 RMK AO2 PK WND
                 30029/0019 SLP313 T10891206 =
2019-01-21 18:51 METAR KILG 212351Z 31011KT 10SM CLR M08/M20 A3040 RMK AO2 SLP297 T10831200 11072
                 21083 53034 =
2019-01-21 17:51 METAR KILG 212251Z 30019KT 10SM CLR M08/M21 A3036 RMK AO2 PK WND 29030/2240
                 SLP283 T10831206 =
2019-01-21 16:51 METAR KILG 212151Z 30020G31KT 10SM CLR M08/M21 A3033 RMK AO2 PK WND 31033/2102
                 SLP272 T10831206 =

Support USWX by starting your Amazon purchase here.